sensor_id;sensor_type;location;lat;lon;timestamp;pressure;altitude;pressure_sealevel;temperature;humidity
32081;BME280;18593;51.426;7.030;2023-12-22T00:00:54;99052.16;;;6.72;74.81
32081;BME280;18593;51.426;7.030;2023-12-22T00:03:23;99045.31;;;6.83;75.93
32081;BME280;18593;51.426;7.030;2023-12-22T00:05:51;99040.38;;;6.87;75.52
32081;BME280;18593;51.426;7.030;2023-12-22T00:08:18;99037.53;;;6.88;75.29
32081;BME280;18593;51.426;7.030;2023-12-22T00:10:47;99042.44;;;6.85;75.38
32081;BME280;18593;51.426;7.030;2023-12-22T00:13:15;99036.41;;;6.78;76.05
32081;BME280;18593;51.426;7.030;2023-12-22T00:15:43;99045.91;;;6.67;76.57
32081;BME280;18593;51.426;7.030;2023-12-22T00:18:11;99039.28;;;6.58;76.05
32081;BME280;18593;51.426;7.030;2023-12-22T00:20:38;99047.22;;;6.39;76.63
32081;BME280;18593;51.426;7.030;2023-12-22T00:23:06;99046.72;;;6.49;77.36
32081;BME280;18593;51.426;7.030;2023-12-22T00:25:34;99046.72;;;6.49;77.38
32081;BME280;18593;51.426;7.030;2023-12-22T00:28:03;99068.91;;;6.48;77.74
32081;BME280;18593;51.426;7.030;2023-12-22T00:30:30;99065.19;;;6.56;77.72
32081;BME280;18593;51.426;7.030;2023-12-22T00:32:58;99077.38;;;6.57;77.70
32081;BME280;18593;51.426;7.030;2023-12-22T00:35:26;99077.25;;;6.52;77.55
32081;BME280;18593;51.426;7.030;2023-12-22T00:37:53;99080.41;;;6.60;78.45
32081;BME280;18593;51.426;7.030;2023-12-22T00:40:21;99082.63;;;6.63;77.97
32081;BME280;18593;51.426;7.030;2023-12-22T00:42:48;99078.19;;;6.57;78.14
32081;BME280;18593;51.426;7.030;2023-12-22T00:45:17;99081.38;;;6.66;78.23
32081;BME280;18593;51.426;7.030;2023-12-22T00:47:45;99081.91;;;6.75;78.06
32081;BME280;18593;51.426;7.030;2023-12-22T00:50:12;99076.31;;;6.64;78.00
32081;BME280;18593;51.426;7.030;2023-12-22T00:52:40;99097.28;;;6.66;78.39
32081;BME280;18593;51.426;7.030;2023-12-22T00:55:08;99089.56;;;6.64;78.55
32081;BME280;18593;51.426;7.030;2023-12-22T00:57:37;99096.34;;;6.79;78.55
32081;BME280;18593;51.426;7.030;2023-12-22T01:00:06;99098.22;;;6.71;78.19
32081;BME280;18593;51.426;7.030;2023-12-22T01:02:38;99081.00;;;6.81;78.55
32081;BME280;18593;51.426;7.030;2023-12-22T01:05:06;99094.41;;;6.86;78.59
32081;BME280;18593;51.426;7.030;2023-12-22T01:07:34;99086.31;;;6.81;78.72
32081;BME280;18593;51.426;7.030;2023-12-22T01:10:01;99095.44;;;6.85;78.93
32081;BME280;18593;51.426;7.030;2023-12-22T01:12:30;99090.94;;;6.85;78.73
32081;BME280;18593;51.426;7.030;2023-12-22T01:14:58;99108.75;;;6.78;78.91
32081;BME280;18593;51.426;7.030;2023-12-22T01:17:25;99089.69;;;6.69;79.05
32081;BME280;18593;51.426;7.030;2023-12-22T01:19:54;99092.50;;;6.75;79.38
32081;BME280;18593;51.426;7.030;2023-12-22T01:22:21;99084.31;;;6.76;78.89
32081;BME280;18593;51.426;7.030;2023-12-22T01:24:49;99104.13;;;6.74;77.32
32081;BME280;18593;51.426;7.030;2023-12-22T01:27:16;99109.94;;;6.64;76.34
32081;BME280;18593;51.426;7.030;2023-12-22T01:29:44;99105.38;;;6.71;75.45
32081;BME280;18593;51.426;7.030;2023-12-22T01:32:11;99127.28;;;6.78;75.49
32081;BME280;18593;51.426;7.030;2023-12-22T01:34:39;99146.03;;;6.83;76.98
32081;BME280;18593;51.426;7.030;2023-12-22T01:37:09;99146.44;;;6.80;76.34
32081;BME280;18593;51.426;7.030;2023-12-22T01:39:37;99171.06;;;6.62;76.47
32081;BME280;18593;51.426;7.030;2023-12-22T01:42:04;99165.91;;;6.49;76.55
32081;BME280;18593;51.426;7.030;2023-12-22T01:44:32;99161.13;;;6.33;76.86
32081;BME280;18593;51.426;7.030;2023-12-22T01:47:00;99151.41;;;6.27;76.97
32081;BME280;18593;51.426;7.030;2023-12-22T01:49:28;99140.31;;;6.11;76.40
32081;BME280;18593;51.426;7.030;2023-12-22T01:51:58;99158.00;;;6.17;77.34
32081;BME280;18593;51.426;7.030;2023-12-22T01:54:30;99152.53;;;6.12;77.27
32081;BME280;18593;51.426;7.030;2023-12-22T01:57:01;99154.78;;;6.09;78.08
32081;BME280;18593;51.426;7.030;2023-12-22T01:59:29;99174.72;;;6.11;78.13
32081;BME280;18593;51.426;7.030;2023-12-22T02:02:00;99184.41;;;6.24;78.06
32081;BME280;18593;51.426;7.030;2023-12-22T02:04:30;99189.81;;;6.11;78.56
32081;BME280;18593;51.426;7.030;2023-12-22T02:07:00;99163.97;;;6.06;78.97
32081;BME280;18593;51.426;7.030;2023-12-22T02:09:29;99160.94;;;6.03;79.71
32081;BME280;18593;51.426;7.030;2023-12-22T02:11:57;99154.84;;;6.02;80.09
32081;BME280;18593;51.426;7.030;2023-12-22T02:14:24;99154.78;;;6.09;79.97
32081;BME280;18593;51.426;7.030;2023-12-22T02:16:57;99149.13;;;6.05;80.13
32081;BME280;18593;51.426;7.030;2023-12-22T02:19:41;99140.75;;;6.08;80.23
32081;BME280;18593;51.426;7.030;2023-12-22T02:22:12;99141.34;;;6.10;80.39
32081;BME280;18593;51.426;7.030;2023-12-22T02:24:42;99163.69;;;6.14;80.19
32081;BME280;18593;51.426;7.030;2023-12-22T02:27:20;99153.09;;;6.14;80.56
32081;BME280;18593;51.426;7.030;2023-12-22T02:29:56;99159.88;;;6.10;80.65
32081;BME280;18593;51.426;7.030;2023-12-22T02:32:30;99163.50;;;6.16;80.18
32081;BME280;18593;51.426;7.030;2023-12-22T02:34:58;99175.16;;;6.08;80.84
32081;BME280;18593;51.426;7.030;2023-12-22T02:37:29;99187.31;;;6.16;80.40
32081;BME280;18593;51.426;7.030;2023-12-22T02:40:00;99169.63;;;6.10;80.10
32081;BME280;18593;51.426;7.030;2023-12-22T02:42:32;99148.25;;;6.11;80.82
32081;BME280;18593;51.426;7.030;2023-12-22T02:45:01;99120.94;;;6.17;80.90
32081;BME280;18593;51.426;7.030;2023-12-22T02:47:30;99127.66;;;6.13;81.28
32081;BME280;18593;51.426;7.030;2023-12-22T02:50:01;99144.41;;;6.07;81.33
32081;BME280;18593;51.426;7.030;2023-12-22T02:52:28;99146.28;;;6.00;81.39
32081;BME280;18593;51.426;7.030;2023-12-22T02:54:59;99123.66;;;6.04;81.57
32081;BME280;18593;51.426;7.030;2023-12-22T02:57:26;99121.66;;;6.00;81.02
32081;BME280;18593;51.426;7.030;2023-12-22T02:59:54;99141.59;;;6.02;80.60
32081;BME280;18593;51.426;7.030;2023-12-22T03:02:22;99136.91;;;6.04;79.98
32081;BME280;18593;51.426;7.030;2023-12-22T03:04:49;99136.25;;;6.09;80.22
32081;BME280;18593;51.426;7.030;2023-12-22T03:07:17;99144.97;;;6.16;80.15
32081;BME280;18593;51.426;7.030;2023-12-22T03:09:45;99141.34;;;6.10;80.45
32081;BME280;18593;51.426;7.030;2023-12-22T03:12:14;99141.53;;;6.15;80.64
32081;BME280;18593;51.426;7.030;2023-12-22T03:14:41;99150.59;;;6.26;80.71
32081;BME280;18593;51.426;7.030;2023-12-22T03:17:10;99146.53;;;6.24;80.42
32081;BME280;18593;51.426;7.030;2023-12-22T03:19:38;99154.75;;;6.15;80.76
32081;BME280;18593;51.426;7.030;2023-12-22T03:22:06;99160.25;;;6.14;81.29
32081;BME280;18593;51.426;7.030;2023-12-22T03:24:34;99149.47;;;6.15;81.40
32081;BME280;18593;51.426;7.030;2023-12-22T03:27:03;99145.78;;;6.16;81.46
32081;BME280;18593;51.426;7.030;2023-12-22T03:29:34;99128.16;;;6.29;81.52
32081;BME280;18593;51.426;7.030;2023-12-22T03:32:01;99145.84;;;6.35;81.17
32081;BME280;18593;51.426;7.030;2023-12-22T03:34:29;99154.28;;;6.25;81.20
32081;BME280;18593;51.426;7.030;2023-12-22T03:36:57;99160.84;;;6.16;81.66
32081;BME280;18593;51.426;7.030;2023-12-22T03:39:24;99137.78;;;6.23;81.67
32081;BME280;18593;51.426;7.030;2023-12-22T03:41:52;99131.44;;;6.24;81.23
32081;BME280;18593;51.426;7.030;2023-12-22T03:44:19;99131.25;;;6.26;81.74
32081;BME280;18593;51.426;7.030;2023-12-22T03:46:48;99130.31;;;6.38;81.29
32081;BME280;18593;51.426;7.030;2023-12-22T03:49:17;99153.09;;;6.46;80.90
32081;BME280;18593;51.426;7.030;2023-12-22T03:51:45;99136.31;;;6.52;80.96
32081;BME280;18593;51.426;7.030;2023-12-22T03:54:12;99148.22;;;6.43;80.88
32081;BME280;18593;51.426;7.030;2023-12-22T03:56:42;99152.38;;;6.57;81.25
32081;BME280;18593;51.426;7.030;2023-12-22T03:59:09;99136.19;;;6.65;80.65
32081;BME280;18593;51.426;7.030;2023-12-22T04:01:36;99156.03;;;6.56;80.66
32081;BME280;18593;51.426;7.030;2023-12-22T04:04:05;99138.41;;;6.68;80.59
32081;BME280;18593;51.426;7.030;2023-12-22T04:06:37;99139.97;;;6.76;80.48
32081;BME280;18593;51.426;7.030;2023-12-22T04:09:05;99139.59;;;6.72;80.07
32081;BME280;18593;51.426;7.030;2023-12-22T04:11:32;99153.06;;;6.71;80.11
32081;BME280;18593;51.426;7.030;2023-12-22T04:14:01;99152.16;;;6.77;80.11
32081;BME280;18593;51.426;7.030;2023-12-22T04:16:28;99159.47;;;6.82;79.99
32081;BME280;18593;51.426;7.030;2023-12-22T04:18:55;99159.16;;;6.71;79.50
32081;BME280;18593;51.426;7.030;2023-12-22T04:21:25;99146.28;;;6.75;79.69
32081;BME280;18593;51.426;7.030;2023-12-22T04:23:52;99137.97;;;6.71;79.77
32081;BME280;18593;51.426;7.030;2023-12-22T04:26:19;99119.69;;;6.63;79.37
32081;BME280;18593;51.426;7.030;2023-12-22T04:28:47;99118.69;;;6.64;80.24
32081;BME280;18593;51.426;7.030;2023-12-22T04:31:14;99124.56;;;6.66;80.33
32081;BME280;18593;51.426;7.030;2023-12-22T04:33:42;99133.63;;;6.59;80.12
32081;BME280;18593;51.426;7.030;2023-12-22T04:36:09;99143.69;;;6.68;80.82
32081;BME280;18593;51.426;7.030;2023-12-22T04:38:39;99165.66;;;6.76;80.82
32081;BME280;18593;51.426;7.030;2023-12-22T04:41:11;99177.44;;;6.80;80.65
32081;BME280;18593;51.426;7.030;2023-12-22T04:43:39;99181.66;;;6.62;79.66
32081;BME280;18593;51.426;7.030;2023-12-22T04:46:06;99173.88;;;6.67;80.19
32081;BME280;18593;51.426;7.030;2023-12-22T04:48:35;99195.88;;;6.68;80.13
32081;BME280;18593;51.426;7.030;2023-12-22T04:51:02;99210.44;;;6.59;80.40
32081;BME280;18593;51.426;7.030;2023-12-22T04:53:30;99201.88;;;6.57;81.00
32081;BME280;18593;51.426;7.030;2023-12-22T04:55:59;99199.63;;;6.60;81.57
32081;BME280;18593;51.426;7.030;2023-12-22T04:58:27;99212.22;;;6.65;81.67
32081;BME280;18593;51.426;7.030;2023-12-22T05:00:55;99208.47;;;6.72;81.65
32081;BME280;18593;51.426;7.030;2023-12-22T05:03:22;99208.84;;;6.76;81.52
32081;BME280;18593;51.426;7.030;2023-12-22T05:05:50;99207.16;;;6.82;81.16
32081;BME280;18593;51.426;7.030;2023-12-22T05:08:17;99244.50;;;6.80;81.38
32081;BME280;18593;51.426;7.030;2023-12-22T05:10:44;99223.88;;;6.82;81.13
32081;BME280;18593;51.426;7.030;2023-12-22T05:13:13;99233.34;;;6.71;81.11
32081;BME280;18593;51.426;7.030;2023-12-22T05:15:41;99230.63;;;6.53;80.61
32081;BME280;18593;51.426;7.030;2023-12-22T05:18:11;99229.47;;;6.49;80.67
32081;BME280;18593;51.426;7.030;2023-12-22T05:20:38;99217.75;;;6.32;80.47
32081;BME280;18593;51.426;7.030;2023-12-22T05:23:06;99217.94;;;6.37;81.15
32081;BME280;18593;51.426;7.030;2023-12-22T05:25:33;99218.34;;;6.34;81.00
32081;BME280;18593;51.426;7.030;2023-12-22T05:28:01;99221.31;;;6.44;81.29
32081;BME280;18593;51.426;7.030;2023-12-22T05:30:30;99218.09;;;6.42;80.97
32081;BME280;18593;51.426;7.030;2023-12-22T05:32:58;99229.09;;;6.39;81.91
32081;BME280;18593;51.426;7.030;2023-12-22T05:35:25;99230.09;;;6.44;81.88
32081;BME280;18593;51.426;7.030;2023-12-22T05:37:53;99235.59;;;6.43;81.85
32081;BME280;18593;51.426;7.030;2023-12-22T05:40:20;99225.00;;;6.43;81.93
32081;BME280;18593;51.426;7.030;2023-12-22T05:42:47;99214.56;;;6.48;82.02
32081;BME280;18593;51.426;7.030;2023-12-22T05:45:15;99237.56;;;6.54;82.24
32081;BME280;18593;51.426;7.030;2023-12-22T05:47:44;99232.06;;;6.56;81.75
32081;BME280;18593;51.426;7.030;2023-12-22T05:50:12;99238.75;;;6.58;82.05
32081;BME280;18593;51.426;7.030;2023-12-22T05:52:40;99236.94;;;6.59;81.77
32081;BME280;18593;51.426;7.030;2023-12-22T05:55:08;99244.66;;;6.60;81.96
32081;BME280;18593;51.426;7.030;2023-12-22T05:57:36;99233.03;;;6.61;82.11
32081;BME280;18593;51.426;7.030;2023-12-22T06:00:05;99228.91;;;6.65;81.68
32081;BME280;18593;51.426;7.030;2023-12-22T06:02:33;99238.91;;;6.63;81.41
32081;BME280;18593;51.426;7.030;2023-12-22T06:05:03;99244.81;;;6.65;81.33
32081;BME280;18593;51.426;7.030;2023-12-22T06:07:31;99230.38;;;6.61;81.34
32081;BME280;18593;51.426;7.030;2023-12-22T06:09:59;99237.91;;;6.64;81.14
32081;BME280;18593;51.426;7.030;2023-12-22T06:12:27;99232.59;;;6.64;81.42
32081;BME280;18593;51.426;7.030;2023-12-22T06:14:55;99225.63;;;6.70;81.58
32081;BME280;18593;51.426;7.030;2023-12-22T06:17:23;99235.78;;;6.73;81.52
32081;BME280;18593;51.426;7.030;2023-12-22T06:19:50;99260.22;;;6.75;81.32
32081;BME280;18593;51.426;7.030;2023-12-22T06:22:20;99249.41;;;6.77;81.45
32081;BME280;18593;51.426;7.030;2023-12-22T06:24:49;99234.53;;;6.76;81.35
32081;BME280;18593;51.426;7.030;2023-12-22T06:27:16;99233.66;;;6.82;81.29
32081;BME280;18593;51.426;7.030;2023-12-22T06:29:44;99229.56;;;6.86;81.32
32081;BME280;18593;51.426;7.030;2023-12-22T06:32:11;99235.44;;;6.88;80.97
32081;BME280;18593;51.426;7.030;2023-12-22T06:34:39;99246.72;;;6.83;80.63
32081;BME280;18593;51.426;7.030;2023-12-22T06:37:07;99240.75;;;6.88;80.65
32081;BME280;18593;51.426;7.030;2023-12-22T06:39:36;99253.00;;;6.89;80.77
32081;BME280;18593;51.426;7.030;2023-12-22T06:42:04;99257.66;;;6.87;80.19
32081;BME280;18593;51.426;7.030;2023-12-22T06:44:37;99241.56;;;6.88;80.74
32081;BME280;18593;51.426;7.030;2023-12-22T06:47:04;99226.69;;;6.87;80.44
32081;BME280;18593;51.426;7.030;2023-12-22T06:49:32;99238.09;;;6.88;80.68
32081;BME280;18593;51.426;7.030;2023-12-22T06:52:00;99246.41;;;6.91;80.64
32081;BME280;18593;51.426;7.030;2023-12-22T06:54:28;99247.03;;;6.93;80.56
32081;BME280;18593;51.426;7.030;2023-12-22T06:56:57;99244.97;;;6.95;80.51
32081;BME280;18593;51.426;7.030;2023-12-22T06:59:25;99241.94;;;6.92;80.35
32081;BME280;18593;51.426;7.030;2023-12-22T07:01:54;99223.59;;;6.90;80.63
32081;BME280;18593;51.426;7.030;2023-12-22T07:05:01;99226.19;;;6.97;80.74
32081;BME280;18593;51.426;7.030;2023-12-22T07:07:33;99221.03;;;7.02;80.89
32081;BME280;18593;51.426;7.030;2023-12-22T07:10:01;99216.78;;;7.01;80.74
32081;BME280;18593;51.426;7.030;2023-12-22T07:12:30;99209.44;;;7.03;80.82
32081;BME280;18593;51.426;7.030;2023-12-22T07:14:57;99205.75;;;7.04;80.47
32081;BME280;18593;51.426;7.030;2023-12-22T07:17:25;99207.78;;;7.02;80.29
32081;BME280;18593;51.426;7.030;2023-12-22T07:19:53;99208.81;;;7.01;80.66
32081;BME280;18593;51.426;7.030;2023-12-22T07:22:24;99212.28;;;7.02;80.86
32081;BME280;18593;51.426;7.030;2023-12-22T07:24:51;99209.69;;;6.95;80.11
32081;BME280;18593;51.426;7.030;2023-12-22T07:27:19;99197.34;;;6.89;80.41
32081;BME280;18593;51.426;7.030;2023-12-22T07:29:48;99203.22;;;6.91;80.46
32081;BME280;18593;51.426;7.030;2023-12-22T07:32:16;99204.75;;;6.80;80.66
32081;BME280;18593;51.426;7.030;2023-12-22T07:34:43;99203.94;;;6.80;80.53
32081;BME280;18593;51.426;7.030;2023-12-22T07:37:13;99212.44;;;6.88;80.89
32081;BME280;18593;51.426;7.030;2023-12-22T07:39:40;99208.09;;;6.94;81.00
32081;BME280;18593;51.426;7.030;2023-12-22T07:42:11;99227.69;;;6.93;81.06
32081;BME280;18593;51.426;7.030;2023-12-22T07:44:40;99225.44;;;6.90;81.33
32081;BME280;18593;51.426;7.030;2023-12-22T07:47:09;99210.34;;;6.90;81.71
32081;BME280;18593;51.426;7.030;2023-12-22T07:49:37;99211.53;;;6.94;81.95
32081;BME280;18593;51.426;7.030;2023-12-22T07:52:07;99204.41;;;6.95;82.14
32081;BME280;18593;51.426;7.030;2023-12-22T07:54:36;99195.19;;;6.97;82.67
32081;BME280;18593;51.426;7.030;2023-12-22T07:57:04;99203.59;;;6.94;82.58
32081;BME280;18593;51.426;7.030;2023-12-22T07:59:32;99196.84;;;6.99;82.83
32081;BME280;18593;51.426;7.030;2023-12-22T08:01:59;99202.94;;;6.99;83.56
32081;BME280;18593;51.426;7.030;2023-12-22T08:04:28;99192.91;;;7.01;83.77
32081;BME280;18593;51.426;7.030;2023-12-22T08:06:56;99199.25;;;7.00;83.45
32081;BME280;18593;51.426;7.030;2023-12-22T08:09:23;99201.47;;;7.03;83.71
32081;BME280;18593;51.426;7.030;2023-12-22T08:11:51;99207.44;;;6.99;84.23
32081;BME280;18593;51.426;7.030;2023-12-22T08:14:20;99203.75;;;7.00;84.27
32081;BME280;18593;51.426;7.030;2023-12-22T08:16:53;99208.41;;;7.04;84.46
32081;BME280;18593;51.426;7.030;2023-12-22T08:19:20;99220.59;;;7.05;84.33
32081;BME280;18593;51.426;7.030;2023-12-22T08:21:53;99226.94;;;7.04;85.03
32081;BME280;18593;51.426;7.030;2023-12-22T08:24:21;99217.06;;;7.11;85.08
32081;BME280;18593;51.426;7.030;2023-12-22T08:26:49;99220.91;;;7.15;85.11
32081;BME280;18593;51.426;7.030;2023-12-22T08:29:17;99228.88;;;7.15;85.27
32081;BME280;18593;51.426;7.030;2023-12-22T08:31:47;99229.81;;;7.21;85.36
32081;BME280;18593;51.426;7.030;2023-12-22T08:34:15;99227.41;;;7.19;85.55
32081;BME280;18593;51.426;7.030;2023-12-22T08:36:43;99240.66;;;7.19;85.78
32081;BME280;18593;51.426;7.030;2023-12-22T08:39:12;99234.94;;;7.22;85.39
32081;BME280;18593;51.426;7.030;2023-12-22T08:41:39;99223.44;;;7.29;85.48
32081;BME280;18593;51.426;7.030;2023-12-22T08:44:07;99207.91;;;7.32;85.62
32081;BME280;18593;51.426;7.030;2023-12-22T08:46:35;99221.16;;;7.32;85.60
32081;BME280;18593;51.426;7.030;2023-12-22T08:49:03;99216.00;;;7.37;85.56
32081;BME280;18593;51.426;7.030;2023-12-22T08:51:31;99224.97;;;7.36;85.92
32081;BME280;18593;51.426;7.030;2023-12-22T08:54:01;99225.72;;;7.43;85.97
32081;BME280;18593;51.426;7.030;2023-12-22T08:56:33;99223.88;;;7.44;85.82
32081;BME280;18593;51.426;7.030;2023-12-22T08:59:01;99234.63;;;7.49;86.07
32081;BME280;18593;51.426;7.030;2023-12-22T09:01:30;99217.69;;;7.50;86.24
32081;BME280;18593;51.426;7.030;2023-12-22T09:04:07;99220.13;;;7.52;86.21
32081;BME280;18593;51.426;7.030;2023-12-22T09:06:35;99208.47;;;7.53;86.58
32081;BME280;18593;51.426;7.030;2023-12-22T09:09:03;99178.25;;;7.54;86.40
32081;BME280;18593;51.426;7.030;2023-12-22T09:11:34;99215.03;;;7.50;85.84
32081;BME280;18593;51.426;7.030;2023-12-22T09:14:04;99207.97;;;7.44;84.84
32081;BME280;18593;51.426;7.030;2023-12-22T09:16:33;99207.97;;;7.44;84.75
32081;BME280;18593;51.426;7.030;2023-12-22T09:19:02;99202.28;;;7.40;84.23
32081;BME280;18593;51.426;7.030;2023-12-22T09:21:30;99197.78;;;7.41;84.47
32081;BME280;18593;51.426;7.030;2023-12-22T09:23:59;99203.47;;;7.44;84.77
32081;BME280;18593;51.426;7.030;2023-12-22T09:26:26;99214.81;;;7.52;85.15
32081;BME280;18593;51.426;7.030;2023-12-22T09:28:55;99205.38;;;7.56;85.27
32081;BME280;18593;51.426;7.030;2023-12-22T09:31:24;99202.72;;;7.56;85.28
32081;BME280;18593;51.426;7.030;2023-12-22T09:33:51;99203.88;;;7.60;85.33
32081;BME280;18593;51.426;7.030;2023-12-22T09:36:19;99184.66;;;7.64;85.56
32081;BME280;18593;51.426;7.030;2023-12-22T09:38:48;99132.75;;;7.68;85.66
32081;BME280;18593;51.426;7.030;2023-12-22T09:41:16;99196.88;;;7.65;85.67
32081;BME280;18593;51.426;7.030;2023-12-22T09:43:49;99187.06;;;7.66;86.40
32081;BME280;18593;51.426;7.030;2023-12-22T09:46:21;99180.38;;;7.63;86.71
32081;BME280;18593;51.426;7.030;2023-12-22T09:48:53;99186.13;;;7.60;86.22
32081;BME280;18593;51.426;7.030;2023-12-22T09:51:21;99180.69;;;7.55;86.67
32081;BME280;18593;51.426;7.030;2023-12-22T09:54:03;99174.72;;;7.60;86.87
32081;BME280;18593;51.426;7.030;2023-12-22T09:56:33;99177.34;;;7.60;87.01
32081;BME280;18593;51.426;7.030;2023-12-22T09:59:05;99173.75;;;7.54;87.31
32081;BME280;18593;51.426;7.030;2023-12-22T10:01:35;99177.50;;;7.46;88.27
32081;BME280;18593;51.426;7.030;2023-12-22T10:04:04;99175.31;;;7.43;89.31
32081;BME280;18593;51.426;7.030;2023-12-22T10:06:31;99155.28;;;7.47;89.99
32081;BME280;18593;51.426;7.030;2023-12-22T10:08:59;99146.84;;;7.51;90.15
32081;BME280;18593;51.426;7.030;2023-12-22T10:11:28;99144.34;;;7.56;90.13
32081;BME280;18593;51.426;7.030;2023-12-22T10:13:59;99152.00;;;7.64;89.90
32081;BME280;18593;51.426;7.030;2023-12-22T10:16:26;99180.38;;;7.63;90.08
32081;BME280;18593;51.426;7.030;2023-12-22T10:18:55;99171.16;;;7.66;90.06
32081;BME280;18593;51.426;7.030;2023-12-22T10:21:23;99177.44;;;7.71;89.99
32081;BME280;18593;51.426;7.030;2023-12-22T10:23:50;99176.75;;;7.76;89.64
32081;BME280;18593;51.426;7.030;2023-12-22T10:26:19;99158.38;;;7.74;89.90
32081;BME280;18593;51.426;7.030;2023-12-22T10:28:49;99159.97;;;7.64;90.62
32081;BME280;18593;51.426;7.030;2023-12-22T10:31:17;99154.41;;;7.65;91.06
32081;BME280;18593;51.426;7.030;2023-12-22T10:36:15;99144.41;;;7.67;91.66
32081;BME280;18593;51.426;7.030;2023-12-22T10:38:43;99144.97;;;7.69;92.38
32081;BME280;18593;51.426;7.030;2023-12-22T10:41:11;99154.13;;;7.73;92.60
32081;BME280;18593;51.426;7.030;2023-12-22T10:43:39;99160.38;;;7.79;92.72
32081;BME280;18593;51.426;7.030;2023-12-22T10:46:09;99141.78;;;7.79;92.59
32081;BME280;18593;51.426;7.030;2023-12-22T10:48:40;99139.94;;;7.80;93.14
32081;BME280;18593;51.426;7.030;2023-12-22T10:51:09;99160.97;;;7.81;93.07
32081;BME280;18593;51.426;7.030;2023-12-22T10:53:42;99162.78;;;7.81;93.29
32081;BME280;18593;51.426;7.030;2023-12-22T10:56:10;99140.41;;;7.77;93.62
32081;BME280;18593;51.426;7.030;2023-12-22T10:58:37;99154.25;;;7.79;94.04
32081;BME280;18593;51.426;7.030;2023-12-22T11:01:07;99173.63;;;7.79;93.36
32081;BME280;18593;51.426;7.030;2023-12-22T11:03:39;99181.59;;;7.79;92.70
32081;BME280;18593;51.426;7.030;2023-12-22T11:06:12;99160.84;;;7.76;92.39
32081;BME280;18593;51.426;7.030;2023-12-22T11:08:44;99159.88;;;7.70;91.02
32081;BME280;18593;51.426;7.030;2023-12-22T11:11:27;99146.03;;;7.68;89.80
32081;BME280;18593;51.426;7.030;2023-12-22T11:13:57;99138.50;;;7.65;89.01
32081;BME280;18593;51.426;7.030;2023-12-22T11:16:25;99151.63;;;7.60;89.17
32081;BME280;18593;51.426;7.030;2023-12-22T11:18:55;99132.25;;;7.60;89.00
32081;BME280;18593;51.426;7.030;2023-12-22T11:21:25;99142.66;;;7.61;89.27
32081;BME280;18593;51.426;7.030;2023-12-22T11:23:54;99143.91;;;7.59;89.10
32081;BME280;18593;51.426;7.030;2023-12-22T11:26:24;99143.09;;;7.58;89.41
32081;BME280;18593;51.426;7.030;2023-12-22T11:28:52;99125.84;;;7.67;89.49
32081;BME280;18593;51.426;7.030;2023-12-22T11:31:20;99112.47;;;7.74;89.77
32081;BME280;18593;51.426;7.030;2023-12-22T11:33:51;99116.72;;;7.75;89.80
32081;BME280;18593;51.426;7.030;2023-12-22T11:36:19;99117.19;;;7.72;89.89
32081;BME280;18593;51.426;7.030;2023-12-22T11:38:46;99122.41;;;7.79;90.25
32081;BME280;18593;51.426;7.030;2023-12-22T11:41:21;99110.88;;;7.85;90.23
32081;BME280;18593;51.426;7.030;2023-12-22T11:43:52;99112.53;;;7.86;90.19
32081;BME280;18593;51.426;7.030;2023-12-22T11:46:20;99107.34;;;7.91;90.17
32081;BME280;18593;51.426;7.030;2023-12-22T11:48:51;99097.53;;;7.91;90.62
32081;BME280;18593;51.426;7.030;2023-12-22T11:51:21;99106.28;;;7.92;91.09
32081;BME280;18593;51.426;7.030;2023-12-22T11:53:52;99101.56;;;7.94;92.45
32081;BME280;18593;51.426;7.030;2023-12-22T11:56:21;99096.16;;;8.00;93.09
32081;BME280;18593;51.426;7.030;2023-12-22T11:58:52;99092.78;;;8.05;93.77
32081;BME280;18593;51.426;7.030;2023-12-22T12:01:23;99078.84;;;8.10;94.55
32081;BME280;18593;51.426;7.030;2023-12-22T12:03:52;99068.00;;;8.11;96.04
32081;BME280;18593;51.426;7.030;2023-12-22T12:06:32;99062.22;;;8.14;96.57
32081;BME280;18593;51.426;7.030;2023-12-22T12:09:06;99049.06;;;8.19;96.47
32081;BME280;18593;51.426;7.030;2023-12-22T12:12:12;99064.09;;;8.25;96.34
32081;BME280;18593;51.426;7.030;2023-12-22T12:14:43;99061.75;;;8.29;95.93
32081;BME280;18593;51.426;7.030;2023-12-22T12:17:11;99075.41;;;8.33;95.76
32081;BME280;18593;51.426;7.030;2023-12-22T12:19:44;99086.16;;;8.38;95.70
32081;BME280;18593;51.426;7.030;2023-12-22T12:22:16;99077.50;;;8.42;95.57
32081;BME280;18593;51.426;7.030;2023-12-22T12:24:45;99085.03;;;8.45;95.34
32081;BME280;18593;51.426;7.030;2023-12-22T12:27:18;99089.84;;;8.48;94.47
32081;BME280;18593;51.426;7.030;2023-12-22T12:29:46;99082.84;;;8.54;93.72
32081;BME280;18593;51.426;7.030;2023-12-22T12:32:15;99067.22;;;8.58;93.55
32081;BME280;18593;51.426;7.030;2023-12-22T12:34:43;99072.06;;;8.61;93.25
32081;BME280;18593;51.426;7.030;2023-12-22T12:37:11;99074.84;;;8.66;93.14
32081;BME280;18593;51.426;7.030;2023-12-22T12:39:40;99079.34;;;8.65;92.68
32081;BME280;18593;51.426;7.030;2023-12-22T12:42:15;99075.66;;;8.66;92.33
32081;BME280;18593;51.426;7.030;2023-12-22T12:44:43;99059.13;;;8.64;91.29
32081;BME280;18593;51.426;7.030;2023-12-22T12:47:12;99075.66;;;8.66;91.14
32081;BME280;18593;51.426;7.030;2023-12-22T12:49:40;99070.56;;;8.65;91.23
32081;BME280;18593;51.426;7.030;2023-12-22T12:52:13;99076.94;;;8.64;91.71
32081;BME280;18593;51.426;7.030;2023-12-22T12:54:49;99070.78;;;8.63;91.78
32081;BME280;18593;51.426;7.030;2023-12-22T12:57:19;99056.94;;;8.61;91.60
32081;BME280;18593;51.426;7.030;2023-12-22T12:59:49;99062.13;;;8.56;91.00
32081;BME280;18593;51.426;7.030;2023-12-22T13:02:19;99079.59;;;8.52;90.68
32081;BME280;18593;51.426;7.030;2023-12-22T13:04:48;99074.25;;;8.52;91.59
32081;BME280;18593;51.426;7.030;2023-12-22T13:07:25;99085.13;;;8.50;91.61
32081;BME280;18593;51.426;7.030;2023-12-22T13:09:52;99096.13;;;8.54;92.10
32081;BME280;18593;51.426;7.030;2023-12-22T13:12:24;99092.31;;;8.50;92.43
32081;BME280;18593;51.426;7.030;2023-12-22T13:14:53;99085.94;;;8.51;92.82
32081;BME280;18593;51.426;7.030;2023-12-22T13:17:22;99089.66;;;8.50;93.01
32081;BME280;18593;51.426;7.030;2023-12-22T13:19:50;99093.81;;;8.46;92.55
32081;BME280;18593;51.426;7.030;2023-12-22T13:22:17;99093.31;;;8.49;92.33